Etusivu
METAR-TAF:

METAR-TAF

Lentoasemat :

Fort Dodge, Iowa, Yhdysvallat

Leveyspiiri: 42-33N, Pituuspiiri: 094-11W, korkeus merenpinnasta: 354 m

Tämänhetkinen sää

Tämä raportti tehtiin 52 minuuttia sitten, kello 17.56 UTC
Tuuli 9 kn pohjoisesta
Lämpötila -2°C
Kosteus 63%
Ilmanpaine 1027 hPa
Näkyvyys: 16.1 km
selkeää

METAR: KFOD 261756Z AUTO 36009KT 10SM CLR M02/M08 A3032 RMK AO2 SLP310 T10221078 11017 21078 58008 FZRANO

Aika: 12:48 (18:48 UTC)

Sääennuste

Tämä raportti tehtiin 1 tunti ja 22 minuuttia sitten, kello 17.26 UTC
Ennuste voimassa 26. päivästä klo 17 UTC - 27. päivään klo 18 UTC
Tuuli 10 kn pohjoisen/luoteesta
Näkyvyys: 10 km
Muutamia pilviä 25000 ft:n korkeudessa
From 27. päivästä klo 0400 UTC
Tuuli 4 kn eri suunnista
Näkyvyys: 10 km
Hajanaisia pilviä 10000 ft:n korkeudessa

TAF: KFOD 261726Z 2617/2718 33010KT P6SM FEW250 FM270400 VRB04KT P6SM SCT100

Säähavainnot ja -ennusteet yli 4000 lentoasemalta (METAR- ja TAF-raportit).

Käytössä olevat sääasemat on merkitty karttaan keltaisilla ja punaisilla pisteillä.

Aseta hiiri pisteen päälle nähdäksesi sääaseman nimen.

Klikkaa sitten nähdäksesi säähavainnot ja -ennusteet.

Kartan vaihtaminen: klikkaa mustalla rastilla varustettuja vihreitä pisteitä, niin voit zoomata sisään; viivalla varustettua vihreää pistettä, niin voit zoomata ulos tai vihreitä nuolia, niin pääset viereisille kartoille.


METAR-TAF: